Time;durP1;ratioP1;P1;durP2;ratioP2;P2;SDS_P1;SDS_P2;PMS_P1;PMS_P2;Temp;Humidity;BMP_temperature;BMP_pressure;BME280_temperature;BME280_humidity;BME280_pressure;Samples;Min_cycle;Max_cycle;Signal;HPM_P1;HPM_P2
2021/10/30 00:00:16;;;;;;;;;;;;;;;16.12;79.85;100225.94;1045186;28;643;-67
2021/10/30 00:01:06;;;;;;;;;;;;;;;16.12;80.00;100225.94;1045303;28;852;-68
2021/10/30 00:01:57;;;;;;;;;;;;;;;16.12;80.02;100217.88;1045216;28;719;-68
2021/10/30 00:02:47;;;;;;;;;;;;;;;16.11;79.78;100220.75;1045199;28;775;-68
2021/10/30 00:03:37;;;;;;;;;;;;;;;16.10;80.11;100222.59;1045309;28;691;-68
2021/10/30 00:04:28;;;;;;;;;;;;;;;16.10;80.27;100219.06;1047109;28;1911;-68
2021/10/30 00:05:18;;;;;;;;;;;;;;;16.10;80.12;100219.06;1048432;28;681;-68
2021/10/30 00:06:09;;;;;;;;;;;;;;;16.09;80.22;100218.22;1048143;28;646;-68
2021/10/30 00:06:59;;;;;;;;;;;;;;;16.10;79.91;100217.22;1048316;28;902;-68
2021/10/30 00:07:50;;;;;;;;;;;;;;;16.09;80.38;100215.53;1048107;28;768;-67
2021/10/30 00:08:40;;;;;;;;;;;;;;;16.08;80.41;100205.75;1048422;28;775;-67
2021/10/30 00:09:31;;;;;;;;;;;;;;;16.08;79.99;100216.50;1048000;28;658;-67
2021/10/30 00:10:21;;;;;;;;;;;;;;;16.07;80.21;100201.38;1048157;28;641;-67
2021/10/30 00:11:12;;;;;;;;;;;;;;;16.07;80.13;100204.06;1048387;28;854;-68
2021/10/30 00:12:02;;;;;;;;;;;;;;;16.08;80.04;100202.22;1048155;28;794;-69
2021/10/30 00:12:52;;;;;;;;;;;;;;;16.09;80.11;100203.91;1048472;28;765;-68
2021/10/30 00:13:43;;;;;;;;;;;;;;;16.07;80.20;100209.44;1045285;28;1632;-68
2021/10/30 00:14:33;;;;;;;;;;;;;;;16.09;80.10;100211.97;1046654;28;1645;-68
2021/10/30 00:15:24;;;;;;;;;;;;;;;16.07;80.12;100212.13;1044156;28;2128;-67
2021/10/30 00:16:14;;;;;;;;;;;;;;;16.07;80.11;100208.59;1044631;28;1425;-69
2021/10/30 00:17:05;;;;;;;;;;;;;;;16.08;80.19;100210.28;1049016;28;1657;-69
2021/10/30 00:17:57;;;;;;;;;;;;;;;16.09;80.17;100211.97;1045618;28;703;-69
2021/10/30 00:18:47;;;;;;;;;;;;;;;16.08;80.38;100202.22;1045212;28;697;-68
2021/10/30 00:19:38;;;;;;;;;;;;;;;16.07;80.04;100208.59;1045295;28;855;-68
2021/10/30 00:20:28;;;;;;;;;;;;;;;16.08;80.48;100212.97;1045187;28;869;-70
2021/10/30 00:21:19;;;;;;;;;;;;;;;16.07;80.63;100214.81;1045327;28;693;-69
2021/10/30 00:22:09;;;;;;;;;;;;;;;16.07;80.24;100208.59;1045184;28;617;-69
2021/10/30 00:22:59;;;;;;;;;;;;;;;16.07;79.91;100214.81;1045198;28;780;-69
2021/10/30 00:23:50;;;;;;;;;;;;;;;16.07;80.23;100212.13;1040069;28;739;-69
2021/10/30 00:24:40;;;;;;;;;;;;;;;16.07;79.97;100222.03;1042024;28;740;-69
2021/10/30 00:25:31;;;;;;;;;;;;;;;16.07;80.02;100214.81;1046234;28;811;-69
2021/10/30 00:26:21;;;;;;;;;;;;;;;16.07;80.62;100219.34;1045204;28;595;-69
2021/10/30 00:27:13;;;;;;;;;;;;;;;16.07;80.39;100213.97;1048462;28;1977;-69
2021/10/30 00:28:03;;;;;;;;;;;;;;;16.08;79.66;100216.50;1044259;28;832;-68
2021/10/30 00:28:53;;;;;;;;;;;;;;;16.07;80.30;100222.88;1044973;28;704;-69
2021/10/30 00:29:44;;;;;;;;;;;;;;;16.08;80.27;100218.34;1048624;28;837;-69
2021/10/30 00:30:34;;;;;;;;;;;;;;;16.06;80.35;100215.81;1045740;28;1561;-69
2021/10/30 00:31:25;;;;;;;;;;;;;;;16.07;79.98;100220.19;1048783;28;1650;-67
2021/10/30 00:32:15;;;;;;;;;;;;;;;16.06;80.13;100223.03;1048524;28;1515;-67
2021/10/30 00:33:06;;;;;;;;;;;;;;;16.05;80.28;100227.56;1048968;28;1564;-67
2021/10/30 00:33:56;;;;;;;;;;;;;;;16.06;80.48;100226.56;1047456;28;1337;-67
2021/10/30 00:34:46;;;;;;;;;;;;;;;16.06;80.26;100223.88;1046132;28;1571;-67
2021/10/30 00:35:37;;;;;;;;;;;;;;;16.06;80.57;100228.41;1047969;28;1388;-66
2021/10/30 00:36:27;;;;;;;;;;;;;;;16.04;80.21;100220.50;1047870;28;1477;-67
2021/10/30 00:37:18;;;;;;;;;;;;;;;16.04;80.43;100225.88;1048841;28;1515;-67
2021/10/30 00:38:08;;;;;;;;;;;;;;;16.05;80.45;100226.72;1049149;28;1665;-66
2021/10/30 00:38:58;;;;;;;;;;;;;;;16.03;80.52;100226.84;1047945;28;1555;-67
2021/10/30 00:39:49;;;;;;;;;;;;;;;16.04;80.46;100230.41;1047989;28;1611;-66
2021/10/30 00:40:40;;;;;;;;;;;;;;;16.05;80.43;100229.41;1049288;28;1475;-67
2021/10/30 00:41:30;;;;;;;;;;;;;;;16.04;80.58;100231.25;1047941;28;1649;-67
2021/10/30 00:42:20;;;;;;;;;;;;;;;16.04;80.34;100236.63;1046600;28;1539;-66
2021/10/30 00:43:11;;;;;;;;;;;;;;;16.03;80.61;100232.22;1048213;28;1898;-66
2021/10/30 00:44:01;;;;;;;;;;;;;;;16.03;80.44;100229.53;1046758;28;1751;-67
2021/10/30 00:44:52;;;;;;;;;;;;;;;16.03;80.90;100228.69;1045937;28;1057;-66
2021/10/30 00:45:42;;;;;;;;;;;;;;;16.03;80.45;100231.38;1047900;28;2092;-67
2021/10/30 00:46:33;;;;;;;;;;;;;;;16.03;80.35;100237.59;1048243;28;1385;-67
2021/10/30 00:47:23;;;;;;;;;;;;;;;16.03;80.30;100232.22;1047718;28;1450;-66
2021/10/30 00:48:14;;;;;;;;;;;;;;;16.03;80.45;100229.53;1048708;28;1655;-67
2021/10/30 00:49:04;;;;;;;;;;;;;;;16.03;80.21;100237.59;1045131;28;1507;-67
2021/10/30 00:49:55;;;;;;;;;;;;;;;16.02;80.62;100227.84;1044241;28;1468;-66
2021/10/30 00:50:45;;;;;;;;;;;;;;;16.03;80.42;100229.53;1048873;28;1573;-66
2021/10/30 00:51:36;;;;;;;;;;;;;;;16.03;80.59;100234.06;1048892;28;1514;-67
2021/10/30 00:52:26;;;;;;;;;;;;;;;16.03;80.52;100226.00;1047917;28;1670;-66
2021/10/30 00:53:17;;;;;;;;;;;;;;;16.02;80.36;100227.84;1046585;28;1761;-66
2021/10/30 00:54:07;;;;;;;;;;;;;;;16.02;80.81;100221.63;1047323;28;1669;-68
2021/10/30 00:54:58;;;;;;;;;;;;;;;16.02;80.78;100221.63;1047779;28;1567;-68
2021/10/30 00:55:48;;;;;;;;;;;;;;;16.01;80.50;100226.16;1047887;28;1428;-67
2021/10/30 00:56:39;;;;;;;;;;;;;;;16.00;80.35;100224.47;1048246;28;1579;-66
2021/10/30 00:57:29;;;;;;;;;;;;;;;16.02;80.35;100230.53;1048046;28;1571;-66
2021/10/30 00:58:19;;;;;;;;;;;;;;;16.02;80.38;100221.63;1048066;28;1492;-66
2021/10/30 00:59:10;;;;;;;;;;;;;;;16.02;80.85;100227.84;1048021;28;1479;-66
2021/10/30 01:00:00;;;;;;;;;;;;;;;16.01;80.35;100225.31;1048099;28;1646;-66
2021/10/30 01:00:51;;;;;;;;;;;;;;;16.01;80.59;100228.00;1048270;28;1452;-66
2021/10/30 01:01:42;;;;;;;;;;;;;;;16.01;80.60;100226.16;1049497;28;1605;-66
2021/10/30 01:02:32;;;;;;;;;;;;;;;16.01;80.60;100223.47;1047406;28;1732;-66
2021/10/30 01:03:22;;;;;;;;;;;;;;;16.00;80.75;100224.47;1048892;28;1941;-66
2021/10/30 01:04:13;;;;;;;;;;;;;;;16.01;80.47;100215.41;1048433;28;1478;-66
2021/10/30 01:05:03;;;;;;;;;;;;;;;16.00;80.63;100224.47;1048713;28;1514;-66
2021/10/30 01:05:54;;;;;;;;;;;;;;;16.00;80.57;100218.25;1049286;28;685;-68
2021/10/30 01:06:44;;;;;;;;;;;;;;;16.00;80.23;100219.09;1049466;28;679;-67
2021/10/30 01:07:35;;;;;;;;;;;;;;;16.00;80.61;100219.09;1049533;28;728;-68
2021/10/30 01:08:25;;;;;;;;;;;;;;;16.00;80.57;100213.72;1049311;28;675;-68
2021/10/30 01:09:15;;;;;;;;;;;;;;;15.99;80.69;100212.03;1048661;28;1815;-67
2021/10/30 01:10:06;;;;;;;;;;;;;;;16.00;80.69;100218.25;1048774;28;689;-67
2021/10/30 01:10:56;;;;;;;;;;;;;;;15.99;80.62;100217.41;1048917;28;796;-67
2021/10/30 01:11:47;;;;;;;;;;;;;;;15.99;80.44;100212.03;1049055;28;741;-67
2021/10/30 01:12:38;;;;;;;;;;;;;;;15.98;80.77;100216.56;1049103;28;867;-67
2021/10/30 01:13:28;;;;;;;;;;;;;;;15.99;80.69;100214.72;1048785;28;713;-67
2021/10/30 01:14:19;;;;;;;;;;;;;;;15.99;80.71;100212.03;1048986;28;726;-67
2021/10/30 01:15:09;;;;;;;;;;;;;;;15.99;80.63;100212.03;1048802;28;712;-66
2021/10/30 01:15:59;;;;;;;;;;;;;;;15.98;80.88;100204.94;1045151;28;781;-67
2021/10/30 01:16:50;;;;;;;;;;;;;;;15.98;80.30;100210.31;1045633;28;830;-67
2021/10/30 01:17:40;;;;;;;;;;;;;;;15.97;80.84;100212.16;1045538;28;736;-67
2021/10/30 01:18:31;;;;;;;;;;;;;;;15.97;80.25;100209.47;1041287;28;882;-68
2021/10/30 01:19:21;;;;;;;;;;;;;;;15.97;80.83;100204.09;1042626;28;617;-68
2021/10/30 01:20:12;;;;;;;;;;;;;;;15.97;80.49;100198.72;1046843;28;901;-68
2021/10/30 01:21:02;;;;;;;;;;;;;;;15.98;80.43;100202.25;1045893;28;624;-68
2021/10/30 01:21:53;;;;;;;;;;;;;;;15.98;80.45;100200.44;1045953;28;742;-68
2021/10/30 01:22:43;;;;;;;;;;;;;;;15.97;80.43;100204.09;1045814;28;716;-68
2021/10/30 01:23:33;;;;;;;;;;;;;;;15.97;80.41;100200.56;1046307;28;1910;-68
2021/10/30 01:24:24;;;;;;;;;;;;;;;15.97;80.51;100205.94;1046343;28;957;-68
2021/10/30 01:25:14;;;;;;;;;;;;;;;15.97;80.86;100209.47;1046404;28;740;-67
2021/10/30 01:26:05;;;;;;;;;;;;;;;15.97;80.76;100200.56;1046505;28;708;-68
2021/10/30 01:26:55;;;;;;;;;;;;;;;15.96;80.84;100197.03;1046423;28;747;-68
2021/10/30 01:27:45;;;;;;;;;;;;;;;15.96;80.68;100201.56;1046372;28;797;-67
2021/10/30 01:28:38;;;;;;;;;;;;;;;15.96;80.59;100204.25;1046012;28;926;-67
2021/10/30 01:29:30;;;;;;;;;;;;;;;15.97;80.65;100203.25;1045509;28;806;-67
2021/10/30 01:30:20;;;;;;;;;;;;;;;15.96;80.90;100201.56;1041892;28;808;-67
2021/10/30 01:31:10;;;;;;;;;;;;;;;15.96;80.53;100207.78;1037819;28;1007;-68
2021/10/30 01:32:01;;;;;;;;;;;;;;;15.95;80.59;100206.09;1042935;28;758;-68
2021/10/30 01:32:51;;;;;;;;;;;;;;;15.96;80.82;100201.56;1046822;28;739;-68
2021/10/30 01:33:42;;;;;;;;;;;;;;;15.95;80.64;100205.25;1045993;28;704;-68
2021/10/30 01:34:33;;;;;;;;;;;;;;;15.94;80.74;100207.09;1045398;28;848;-68
2021/10/30 01:35:24;;;;;;;;;;;;;;;15.96;80.64;100201.56;1045847;28;687;-68
2021/10/30 01:36:14;;;;;;;;;;;;;;;15.94;80.41;100201.72;1046314;28;793;-68
2021/10/30 01:37:04;;;;;;;;;;;;;;;15.95;80.56;100202.56;1046425;28;796;-68
2021/10/30 01:37:55;;;;;;;;;;;;;;;15.95;80.75;100205.25;1046398;28;636;-68
2021/10/30 01:38:45;;;;;;;;;;;;;;;15.95;80.74;100203.41;1046332;28;793;-67
2021/10/30 01:39:36;;;;;;;;;;;;;;;15.95;80.83;100202.56;1046361;28;679;-68
2021/10/30 01:40:26;;;;;;;;;;;;;;;15.94;80.90;100198.22;1046334;28;661;-67
2021/10/30 01:41:16;;;;;;;;;;;;;;;15.94;80.57;100199.03;1046336;28;660;-67
2021/10/30 01:42:07;;;;;;;;;;;;;;;15.93;80.54;100200.06;1050093;28;1646;-67
2021/10/30 01:42:58;;;;;;;;;;;;;;;15.94;80.53;100190.97;1049147;28;853;-66
2021/10/30 01:43:48;;;;;;;;;;;;;;;15.93;80.70;100196.50;1049894;28;712;-67
2021/10/30 01:44:39;;;;;;;;;;;;;;;15.92;80.56;100184.91;1049752;28;732;-67
2021/10/30 01:45:29;;;;;;;;;;;;;;;15.92;80.59;100184.91;1048618;28;2153;-67
2021/10/30 01:46:20;;;;;;;;;;;;;;;15.92;80.79;100184.91;1049910;28;937;-66
2021/10/30 01:47:10;;;;;;;;;;;;;;;15.92;80.77;100176.84;1049823;28;855;-67
2021/10/30 01:48:01;;;;;;;;;;;;;;;15.93;80.95;100177.72;1049911;28;699;-67
2021/10/30 01:48:51;;;;;;;;;;;;;;;15.91;80.72;100175.16;1049855;28;796;-67
2021/10/30 01:49:41;;;;;;;;;;;;;;;15.92;80.83;100174.16;1049888;28;715;-67
2021/10/30 01:50:32;;;;;;;;;;;;;;;15.92;80.55;100173.31;1049839;28;733;-67
2021/10/30 01:51:22;;;;;;;;;;;;;;;15.91;80.94;100177.84;1049876;28;821;-67
2021/10/30 01:52:13;;;;;;;;;;;;;;;15.92;80.68;100178.69;1049942;28;652;-67
2021/10/30 01:53:03;;;;;;;;;;;;;;;15.92;80.71;100176.84;1049834;28;808;-67
2021/10/30 01:53:55;;;;;;;;;;;;;;;15.91;80.66;100171.63;1049216;28;1957;-67
2021/10/30 01:54:45;;;;;;;;;;;;;;;15.90;80.66;100162.72;1048427;28;1829;-67
2021/10/30 01:55:36;;;;;;;;;;;;;;;15.90;80.83;100164.56;1048931;28;962;-67
2021/10/30 01:56:26;;;;;;;;;;;;;;;15.90;80.89;100159.19;1048611;28;741;-67
2021/10/30 01:57:17;;;;;;;;;;;;;;;15.92;80.95;100159.88;1044447;28;757;-67
2021/10/30 01:58:07;;;;;;;;;;;;;;;15.91;80.60;100159.03;1045364;28;781;-67
2021/10/30 01:58:58;;;;;;;;;;;;;;;15.91;80.76;100160.88;1049443;28;695;-67
2021/10/30 01:59:49;;;;;;;;;;;;;;;15.90;81.38;100157.34;1048562;28;787;-67
2021/10/30 02:00:39;;;;;;;;;;;;;;;15.89;80.87;100152.13;1048632;28;734;-67
2021/10/30 02:01:30;;;;;;;;;;;;;;;15.90;80.83;100151.13;1048684;28;1508;-67
2021/10/30 02:02:20;;;;;;;;;;;;;;;15.90;80.77;100143.06;1044760;28;614;-67
2021/10/30 02:03:10;;;;;;;;;;;;;;;15.89;80.81;100152.13;1045341;28;1898;-67
2021/10/30 02:04:01;;;;;;;;;;;;;;;15.88;80.74;100143.22;1049612;28;813;-67
2021/10/30 02:04:52;;;;;;;;;;;;;;;15.88;80.75;100143.22;1048822;28;1300;-67
2021/10/30 02:05:42;;;;;;;;;;;;;;;15.89;80.95;100133.31;1048545;28;830;-67
2021/10/30 02:06:33;;;;;;;;;;;;;;;15.88;80.60;100135.16;1048791;28;704;-68
2021/10/30 02:07:23;;;;;;;;;;;;;;;15.89;80.74;100138.69;1048543;28;739;-67
2021/10/30 02:08:13;;;;;;;;;;;;;;;15.88;80.99;100132.47;1048682;28;881;-67
2021/10/30 02:09:04;;;;;;;;;;;;;;;15.88;80.63;100134.31;1048428;28;610;-67
2021/10/30 02:09:54;;;;;;;;;;;;;;;15.87;80.79;100130.78;1048579;28;1198;-68
2021/10/30 02:10:45;;;;;;;;;;;;;;;15.88;80.64;100139.69;1048839;28;690;-66
2021/10/30 02:11:35;;;;;;;;;;;;;;;15.87;80.79;100138.84;1048537;28;662;-66
2021/10/30 02:12:26;;;;;;;;;;;;;;;15.88;80.99;100134.31;1048716;28;878;-66
2021/10/30 02:13:16;;;;;;;;;;;;;;;15.87;81.09;100130.78;1047949;28;1867;-66
2021/10/30 02:14:06;;;;;;;;;;;;;;;15.88;80.92;100140.53;1046163;28;869;-66
2021/10/30 02:14:57;;;;;;;;;;;;;;;15.89;80.90;100141.38;1046308;28;668;-65
2021/10/30 02:15:47;;;;;;;;;;;;;;;15.88;80.99;100143.22;1045938;28;779;-65
2021/10/30 02:16:37;;;;;;;;;;;;;;;15.88;80.96;100135.16;1047811;28;2115;-67
2021/10/30 02:17:28;;;;;;;;;;;;;;;15.89;80.82;100136.00;1049496;28;973;-68
2021/10/30 02:18:18;;;;;;;;;;;;;;;15.86;80.96;100136.28;1049672;28;757;-68
2021/10/30 02:19:09;;;;;;;;;;;;;;;15.86;81.02;100125.56;1049952;28;801;-68
2021/10/30 02:19:59;;;;;;;;;;;;;;;15.87;80.99;100135.31;1049864;28;770;-69
2021/10/30 02:20:50;;;;;;;;;;;;;;;15.87;80.96;100127.25;1049632;28;751;-67
2021/10/30 02:21:40;;;;;;;;;;;;;;;15.86;80.97;100130.94;1049680;28;789;-68
2021/10/30 02:22:30;;;;;;;;;;;;;;;15.85;80.85;100129.22;1049764;28;871;-69
2021/10/30 02:23:21;;;;;;;;;;;;;;;15.86;80.90;100128.25;1049645;28;1906;-67
2021/10/30 02:24:11;;;;;;;;;;;;;;;15.86;81.07;100126.41;1049788;28;665;-68
2021/10/30 02:25:02;;;;;;;;;;;;;;;15.86;81.24;100125.56;1049621;28;942;-68
2021/10/30 02:25:52;;;;;;;;;;;;;;;15.85;81.03;100119.34;1049794;28;721;-68
2021/10/30 02:26:43;;;;;;;;;;;;;;;15.86;80.90;100120.19;1049717;28;803;-68
2021/10/30 02:27:33;;;;;;;;;;;;;;;15.87;80.79;100116.50;1049742;28;740;-68
2021/10/30 02:28:24;;;;;;;;;;;;;;;15.86;80.83;100114.81;1049799;28;726;-68
2021/10/30 02:29:14;;;;;;;;;;;;;;;15.86;80.86;100114.81;1049710;28;989;-70
2021/10/30 02:30:04;;;;;;;;;;;;;;;15.85;81.05;100118.50;1049834;28;617;-69
2021/10/30 02:30:55;;;;;;;;;;;;;;;15.85;81.08;100113.13;1049668;28;828;-67
2021/10/30 02:31:45;;;;;;;;;;;;;;;15.84;80.58;100112.25;1049733;28;703;-67
2021/10/30 02:32:36;;;;;;;;;;;;;;;15.84;80.87;100111.41;1049831;28;833;-68
2021/10/30 02:33:26;;;;;;;;;;;;;;;15.84;81.20;100117.63;1049042;28;1812;-68
2021/10/30 02:34:17;;;;;;;;;;;;;;;15.85;80.76;100107.75;1048640;28;783;-68
2021/10/30 02:35:07;;;;;;;;;;;;;;;15.85;81.15;100113.13;1048326;28;1216;-69
2021/10/30 02:35:58;;;;;;;;;;;;;;;15.85;80.86;100113.97;1048568;28;745;-69
2021/10/30 02:36:48;;;;;;;;;;;;;;;15.85;81.08;100107.75;1048440;28;776;-69
2021/10/30 02:37:38;;;;;;;;;;;;;;;15.84;80.83;100108.72;1048547;28;708;-69
2021/10/30 02:38:29;;;;;;;;;;;;;;;15.84;81.04;100111.41;1048765;28;737;-69
2021/10/30 02:39:19;;;;;;;;;;;;;;;15.84;80.83;100104.19;1048465;28;940;-69
2021/10/30 02:40:10;;;;;;;;;;;;;;;15.83;80.89;100105.19;1044302;28;767;-69
2021/10/30 02:41:00;;;;;;;;;;;;;;;15.84;81.13;100097.97;1045230;28;665;-69
2021/10/30 02:41:51;;;;;;;;;;;;;;;15.83;80.67;100107.88;1049143;28;1539;-70
2021/10/30 02:42:41;;;;;;;;;;;;;;;15.84;80.84;100103.34;1050542;28;716;-70
2021/10/30 02:43:32;;;;;;;;;;;;;;;15.84;80.74;100100.66;1049299;28;1905;-70
2021/10/30 02:44:22;;;;;;;;;;;;;;;15.83;81.05;100099.81;1049502;28;736;-70
2021/10/30 02:45:12;;;;;;;;;;;;;;;15.84;80.90;100097.97;1049714;28;585;-69
2021/10/30 02:46:03;;;;;;;;;;;;;;;15.82;81.31;100095.44;1049697;28;789;-69
2021/10/30 02:46:53;;;;;;;;;;;;;;;15.83;81.14;100101.66;1049542;28;696;-69
2021/10/30 02:47:44;;;;;;;;;;;;;;;15.83;81.08;100088.22;1050481;28;798;-69
2021/10/30 02:48:34;;;;;;;;;;;;;;;15.82;81.00;100084.69;1049283;28;683;-69
2021/10/30 02:49:25;;;;;;;;;;;;;;;15.81;81.07;100088.38;1048468;28;2609;-69
2021/10/30 02:50:15;;;;;;;;;;;;;;;15.83;81.03;100077.47;1049611;28;775;-70
2021/10/30 02:51:05;;;;;;;;;;;;;;;15.83;81.03;100080.19;1049680;28;673;-70
2021/10/30 02:51:56;;;;;;;;;;;;;;;15.82;80.86;100070.41;1049621;28;819;-69
2021/10/30 02:52:46;;;;;;;;;;;;;;;15.82;80.79;100067.72;1049743;28;804;-69
2021/10/30 02:53:37;;;;;;;;;;;;;;;15.82;80.98;100063.22;1049638;28;735;-69
2021/10/30 02:54:27;;;;;;;;;;;;;;;15.82;81.02;100070.41;1049334;28;724;-68
2021/10/30 02:55:18;;;;;;;;;;;;;;;15.82;80.95;100065.03;1049782;28;735;-68
2021/10/30 02:56:08;;;;;;;;;;;;;;;15.82;81.06;100070.41;1049499;28;939;-70
2021/10/30 02:56:58;;;;;;;;;;;;;;;15.82;80.82;100070.41;1049655;28;610;-70
2021/10/30 02:57:49;;;;;;;;;;;;;;;15.82;80.97;100063.22;1045319;28;800;-69
2021/10/30 02:58:39;;;;;;;;;;;;;;;15.81;80.68;100055.28;1045752;28;700;-69
2021/10/30 02:59:30;;;;;;;;;;;;;;;15.82;80.83;100057.84;1050055;28;742;-69
2021/10/30 03:00:20;;;;;;;;;;;;;;;15.81;80.62;100053.47;1049467;28;937;-69
2021/10/30 03:01:10;;;;;;;;;;;;;;;15.80;80.79;100057.13;1048787;28;1863;-69
2021/10/30 03:02:01;;;;;;;;;;;;;;;15.80;80.76;100062.50;1049706;28;957;-69
2021/10/30 03:02:51;;;;;;;;;;;;;;;15.82;80.98;100062.38;1049534;28;705;-69
2021/10/30 03:03:42;;;;;;;;;;;;;;;15.80;80.57;100067.88;1049652;28;723;-69
2021/10/30 03:04:32;;;;;;;;;;;;;;;15.80;80.88;100067.03;1049437;28;883;-68
2021/10/30 03:05:22;;;;;;;;;;;;;;;15.80;81.20;100062.50;1049586;28;771;-68
2021/10/30 03:06:15;;;;;;;;;;;;;;;15.80;80.56;100072.41;1049617;28;804;-68
2021/10/30 03:07:05;;;;;;;;;;;;;;;15.80;81.22;100067.03;1049467;28;664;-69
2021/10/30 03:07:56;;;;;;;;;;;;;;;15.80;81.14;100064.34;1044141;28;736;-69
2021/10/30 03:08:46;;;;;;;;;;;;;;;15.79;81.12;100060.81;1045043;28;760;-69
2021/10/30 03:09:36;;;;;;;;;;;;;;;15.78;80.73;100053.75;1045729;28;1225;-70
2021/10/30 03:10:27;;;;;;;;;;;;;;;15.79;80.87;100060.81;1045690;28;956;-68
2021/10/30 03:11:18;;;;;;;;;;;;;;;15.79;80.89;100054.59;1050158;28;613;-69
2021/10/30 03:12:08;;;;;;;;;;;;;;;15.79;80.74;100054.59;1043918;28;796;-69
2021/10/30 03:12:59;;;;;;;;;;;;;;;15.79;81.12;100047.38;1045135;28;858;-69
2021/10/30 03:13:49;;;;;;;;;;;;;;;15.79;80.30;100044.69;1049967;28;715;-69
2021/10/30 03:14:39;;;;;;;;;;;;;;;15.79;80.68;100036.63;1049518;28;832;-69
2021/10/30 03:15:30;;;;;;;;;;;;;;;15.79;80.81;100033.94;1049569;28;779;-69
2021/10/30 03:16:20;;;;;;;;;;;;;;;15.78;80.98;100032.25;1049458;28;1473;-68
2021/10/30 03:17:11;;;;;;;;;;;;;;;15.77;80.80;100029.72;1049500;28;773;-68
2021/10/30 03:18:01;;;;;;;;;;;;;;;15.76;80.96;100028.91;1049511;28;641;-69
2021/10/30 03:18:51;;;;;;;;;;;;;;;15.77;80.88;100035.94;1049419;28;800;-69
2021/10/30 03:19:42;;;;;;;;;;;;;;;15.77;81.05;100030.56;1049565;28;756;-69
2021/10/30 03:20:33;;;;;;;;;;;;;;;15.76;80.79;100034.28;1049531;28;691;-69
2021/10/30 03:21:23;;;;;;;;;;;;;;;15.76;80.76;100033.44;1049504;28;779;-69
2021/10/30 03:22:13;;;;;;;;;;;;;;;15.77;80.71;100029.72;1049609;28;594;-70
2021/10/30 03:23:04;;;;;;;;;;;;;;;15.77;80.88;100035.94;1049606;28;900;-69
2021/10/30 03:23:54;;;;;;;;;;;;;;;15.77;81.08;100035.94;1049487;28;795;-69
2021/10/30 03:24:45;;;;;;;;;;;;;;;15.76;80.74;100034.28;1044185;28;731;-69
2021/10/30 03:25:36;;;;;;;;;;;;;;;15.76;80.94;100022.69;1045016;28;803;-69
2021/10/30 03:26:26;;;;;;;;;;;;;;;15.75;80.69;100015.63;1049335;28;701;-69
2021/10/30 03:27:17;;;;;;;;;;;;;;;15.74;80.84;100020.16;1049442;28;947;-69
2021/10/30 03:28:07;;;;;;;;;;;;;;;15.75;80.71;100021.00;1049458;28;719;-69
2021/10/30 03:28:57;;;;;;;;;;;;;;;15.75;80.71;100021.84;1049421;28;701;-69
2021/10/30 03:29:48;;;;;;;;;;;;;;;15.76;81.09;100023.53;1047524;28;1986;-70
2021/10/30 03:30:42;;;;;;;;;;;;;;;15.76;81.04;100017.31;1048288;28;705;-69
2021/10/30 03:31:32;;;;;;;;;;;;;;;15.75;80.64;100021.00;1047970;28;1031;-69
2021/10/30 03:32:22;;;;;;;;;;;;;;;15.75;80.67;100010.25;1048293;28;663;-70
2021/10/30 03:33:13;;;;;;;;;;;;;;;15.75;80.53;100018.31;1048551;28;637;-70
2021/10/30 03:34:03;;;;;;;;;;;;;;;15.76;80.79;100003.88;1048206;28;746;-70
2021/10/30 03:34:54;;;;;;;;;;;;;;;15.75;80.62;100007.56;1048256;28;1265;-69
2021/10/30 03:35:44;;;;;;;;;;;;;;;15.75;81.04;100010.25;1048123;28;958;-69
2021/10/30 03:36:34;;;;;;;;;;;;;;;15.75;81.06;100005.72;1048320;28;779;-69
2021/10/30 03:37:25;;;;;;;;;;;;;;;15.74;80.59;100000.50;1048411;28;792;-69
2021/10/30 03:38:16;;;;;;;;;;;;;;;15.74;80.72;100001.34;1048443;28;728;-69
2021/10/30 03:39:06;;;;;;;;;;;;;;;15.72;81.13;100003.34;1048270;28;625;-69
2021/10/30 03:39:57;;;;;;;;;;;;;;;15.73;81.24;100005.03;1048392;28;831;-69
2021/10/30 03:40:47;;;;;;;;;;;;;;;15.73;80.85;100004.19;1048166;28;700;-68
2021/10/30 03:41:37;;;;;;;;;;;;;;;15.75;81.07;100004.88;1048233;28;649;-69
2021/10/30 03:42:28;;;;;;;;;;;;;;;15.74;81.04;100000.50;1044777;28;711;-69
2021/10/30 03:43:18;;;;;;;;;;;;;;;15.73;80.97;99996.13;1045760;28;1955;-69
2021/10/30 03:44:09;;;;;;;;;;;;;;;15.72;81.02;100000.66;1045952;28;806;-68
2021/10/30 03:44:59;;;;;;;;;;;;;;;15.73;80.65;99996.13;1045353;28;743;-68
2021/10/30 03:45:49;;;;;;;;;;;;;;;15.73;80.90;99999.66;1045826;28;767;-68
2021/10/30 03:46:40;;;;;;;;;;;;;;;15.73;80.88;99996.13;1045948;28;731;-68
2021/10/30 03:47:31;;;;;;;;;;;;;;;15.72;80.53;99986.38;1045538;28;747;-65
2021/10/30 03:48:22;;;;;;;;;;;;;;;15.72;80.80;99995.28;1045171;28;833;-65
2021/10/30 03:49:12;;;;;;;;;;;;;;;15.72;81.27;100002.50;1044607;28;771;-65
2021/10/30 03:50:02;;;;;;;;;;;;;;;15.71;80.95;99996.28;1045223;28;857;-64
2021/10/30 03:50:53;;;;;;;;;;;;;;;15.71;80.65;100004.34;1045384;28;823;-65
2021/10/30 03:51:44;;;;;;;;;;;;;;;15.71;80.93;99992.75;1045262;28;728;-64
2021/10/30 03:52:34;;;;;;;;;;;;;;;15.71;80.66;99998.97;1045250;28;1166;-64
2021/10/30 03:53:25;;;;;;;;;;;;;;;15.72;80.67;99992.59;1045382;28;755;-68
2021/10/30 03:54:15;;;;;;;;;;;;;;;15.71;80.79;99993.59;1045213;28;950;-69
2021/10/30 03:55:06;;;;;;;;;;;;;;;15.71;80.88;99993.59;1045267;28;681;-69
2021/10/30 03:55:56;;;;;;;;;;;;;;;15.71;80.69;99990.06;1045111;28;653;-69
2021/10/30 03:56:47;;;;;;;;;;;;;;;15.70;80.81;99991.06;1045177;28;864;-69
2021/10/30 03:57:37;;;;;;;;;;;;;;;15.70;80.88;99993.75;1045564;28;1850;-69
2021/10/30 03:58:28;;;;;;;;;;;;;;;15.69;80.91;99984.84;1045785;28;808;-69
2021/10/30 03:59:19;;;;;;;;;;;;;;;15.69;80.72;99986.69;1045274;28;2113;-68
2021/10/30 04:00:09;;;;;;;;;;;;;;;15.70;81.16;99993.75;1045786;28;847;-68
2021/10/30 04:00:59;;;;;;;;;;;;;;;15.70;80.77;99999.13;1046459;28;1135;-68
2021/10/30 04:01:50;;;;;;;;;;;;;;;15.69;80.71;100002.81;1046409;28;797;-68
2021/10/30 04:02:40;;;;;;;;;;;;;;;15.70;81.25;100009.88;1042547;28;811;-68
2021/10/30 04:03:31;;;;;;;;;;;;;;;15.69;80.70;100008.19;1042496;28;1886;-68
2021/10/30 04:04:21;;;;;;;;;;;;;;;15.70;80.86;100007.19;1047012;28;640;-68
2021/10/30 04:05:12;;;;;;;;;;;;;;;15.69;80.98;100003.66;1046339;28;798;-68
2021/10/30 04:06:03;;;;;;;;;;;;;;;15.69;80.69;100000.97;1045277;28;1126;-68
2021/10/30 04:06:53;;;;;;;;;;;;;;;15.69;80.55;99997.44;1045772;28;976;-68
2021/10/30 04:07:44;;;;;;;;;;;;;;;15.68;80.85;100001.13;1046331;28;742;-69
2021/10/30 04:08:34;;;;;;;;;;;;;;;15.69;80.62;100003.66;1046459;28;798;-67
2021/10/30 04:09:25;;;;;;;;;;;;;;;15.69;81.00;99995.59;1046236;28;887;-67
2021/10/30 04:10:15;;;;;;;;;;;;;;;15.70;80.53;99996.44;1046312;28;639;-67
2021/10/30 04:11:05;;;;;;;;;;;;;;;15.69;80.58;99995.59;1046354;28;936;-67
2021/10/30 04:11:56;;;;;;;;;;;;;;;15.69;80.92;99998.28;1046375;28;802;-67
2021/10/30 04:12:46;;;;;;;;;;;;;;;15.69;80.84;99992.06;1046373;28;682;-67
2021/10/30 04:13:37;;;;;;;;;;;;;;;15.68;80.83;99983.16;1046282;28;659;-67
2021/10/30 04:14:27;;;;;;;;;;;;;;;15.68;81.06;99993.06;1046304;28;834;-67
2021/10/30 04:15:17;;;;;;;;;;;;;;;15.69;81.05;99984.00;1046291;28;946;-68
2021/10/30 04:16:08;;;;;;;;;;;;;;;15.68;80.93;99985.84;1046319;28;908;-67
2021/10/30 04:16:58;;;;;;;;;;;;;;;15.70;80.93;99977.63;1046427;28;652;-67
2021/10/30 04:17:49;;;;;;;;;;;;;;;15.69;80.77;99974.09;1046047;28;1100;-68
2021/10/30 04:18:39;;;;;;;;;;;;;;;15.69;80.58;99974.09;1045869;28;792;-68
2021/10/30 04:19:29;;;;;;;;;;;;;;;15.70;80.73;99972.25;1045743;28;888;-67
2021/10/30 04:20:20;;;;;;;;;;;;;;;15.71;80.90;99971.25;1045868;28;708;-68
2021/10/30 04:21:11;;;;;;;;;;;;;;;15.71;80.95;99972.09;1045856;28;661;-67
2021/10/30 04:22:01;;;;;;;;;;;;;;;15.73;80.58;99969.28;1046348;28;652;-67
2021/10/30 04:22:51;;;;;;;;;;;;;;;15.75;80.31;99969.97;1045789;28;738;-68
2021/10/30 04:23:42;;;;;;;;;;;;;;;15.74;80.46;99963.75;1045635;28;1977;-67
2021/10/30 04:24:32;;;;;;;;;;;;;;;15.75;80.65;99967.28;1045778;28;1079;-67
2021/10/30 04:25:23;;;;;;;;;;;;;;;15.76;80.33;99959.06;1045810;28;685;-67